createdAt,value
2022-10-23T00:01:42.136Z,5.10
2022-10-23T00:04:16.433Z,4.43
2022-10-23T00:06:44.189Z,4.80
2022-10-23T00:09:20.685Z,4.53
2022-10-23T00:11:50.323Z,4.25
2022-10-23T00:14:21.367Z,3.80
2022-10-23T00:16:48.260Z,3.80
2022-10-23T00:19:15.445Z,4.07
2022-10-23T00:21:42.580Z,3.83
2022-10-23T00:26:42.304Z,3.47
2022-10-23T00:29:10.813Z,3.35
2022-10-23T00:31:38.540Z,3.50
2022-10-23T00:34:08.570Z,3.20
2022-10-23T00:36:36.903Z,3.30
2022-10-23T00:39:05.324Z,3.35
2022-10-23T00:41:33.393Z,2.92
2022-10-23T00:44:08.488Z,3.22
2022-10-23T00:46:38.829Z,3.40
2022-10-23T00:49:07.451Z,3.00
2022-10-23T00:51:42.626Z,3.50
2022-10-23T00:54:23.584Z,3.70
2022-10-23T00:56:54.806Z,3.13
2022-10-23T00:59:21.728Z,3.33
2022-10-23T01:01:49.065Z,3.28
2022-10-23T01:04:16.677Z,3.15
2022-10-23T01:07:04.552Z,3.10
2022-10-23T01:10:00.127Z,3.33
2022-10-23T01:13:00.993Z,3.65
2022-10-23T01:16:01.148Z,3.08
2022-10-23T01:18:55.123Z,3.38
2022-10-23T01:21:53.101Z,3.20
2022-10-23T01:24:50.212Z,3.20
2022-10-23T01:27:25.854Z,3.17
2022-10-23T01:30:01.481Z,3.50
2022-10-23T01:33:09.677Z,3.40
2022-10-23T01:36:01.112Z,3.45
2022-10-23T01:38:45.810Z,3.00
2022-10-23T01:41:33.516Z,3.58
2022-10-23T01:44:15.928Z,2.72
2022-10-23T01:46:44.570Z,3.30
2022-10-23T01:49:14.235Z,2.90
2022-10-23T01:51:46.874Z,2.97
2022-10-23T01:54:18.917Z,2.67
2022-10-23T01:56:48.818Z,3.08
2022-10-23T01:59:22.747Z,2.95
2022-10-23T02:01:52.583Z,2.55
2022-10-23T02:04:27.680Z,2.58
2022-10-23T02:06:54.622Z,2.50
2022-10-23T02:09:21.594Z,2.67
2022-10-23T02:11:59.983Z,2.72
2022-10-23T02:14:46.632Z,3.05
2022-10-23T02:17:32.404Z,2.70
2022-10-23T02:20:19.679Z,2.83
2022-10-23T02:23:27.360Z,2.70
2022-10-23T02:26:16.253Z,2.40
2022-10-23T02:28:50.914Z,2.33
2022-10-23T02:31:21.799Z,2.53
2022-10-23T02:33:49.299Z,2.65
2022-10-23T02:36:18.621Z,2.58
2022-10-23T02:38:46.518Z,2.63
2022-10-23T02:41:39.080Z,2.80
2022-10-23T02:44:28.965Z,2.03
2022-10-23T02:47:21.749Z,2.58
2022-10-23T02:50:15.523Z,2.30
2022-10-23T02:53:25.643Z,2.50
2022-10-23T02:56:07.369Z,2.67
2022-10-23T02:59:04.498Z,2.60
2022-10-23T03:01:46.040Z,2.38
2022-10-23T03:04:14.950Z,2.92
2022-10-23T03:06:42.192Z,2.45
2022-10-23T03:09:10.013Z,2.70
2022-10-23T03:11:37.162Z,3.22
2022-10-23T03:14:04.117Z,2.53
2022-10-23T03:16:31.005Z,2.38
2022-10-23T03:18:57.968Z,2.47
2022-10-23T03:21:25.014Z,2.33
2022-10-23T03:23:51.964Z,2.25
2022-10-23T03:26:18.939Z,2.53
2022-10-23T03:28:45.984Z,2.95
2022-10-23T03:31:12.892Z,2.97
2022-10-23T03:33:39.842Z,2.50
2022-10-23T03:36:07.642Z,2.55
2022-10-23T03:38:34.820Z,2.80
2022-10-23T03:41:01.698Z,2.63
2022-10-23T03:43:28.638Z,3.00
2022-10-23T03:45:57.175Z,2.88
2022-10-23T03:48:25.033Z,2.65
2022-10-23T03:50:52.992Z,2.50
2022-10-23T03:53:19.971Z,2.50
2022-10-23T03:55:46.921Z,2.88
2022-10-23T03:58:13.864Z,2.58
2022-10-23T04:00:40.789Z,2.90
2022-10-23T04:03:07.723Z,2.83
2022-10-23T04:05:35.944Z,2.88
2022-10-23T04:08:02.857Z,2.85
2022-10-23T04:10:29.750Z,3.00
2022-10-23T04:12:56.737Z,2.88
2022-10-23T04:15:23.636Z,2.63
2022-10-23T04:17:50.531Z,3.00
2022-10-23T04:20:17.715Z,2.92
2022-10-23T04:22:45.039Z,2.63
2022-10-23T04:25:12.855Z,2.53
2022-10-23T04:27:39.907Z,3.13
2022-10-23T04:30:07.968Z,2.80
2022-10-23T04:32:35.220Z,2.80
2022-10-23T04:35:02.134Z,3.00
2022-10-23T04:37:29.162Z,3.10
2022-10-23T04:39:56.199Z,2.72
2022-10-23T04:42:23.234Z,3.10
2022-10-23T04:44:50.132Z,2.73
2022-10-23T04:47:17.053Z,2.83
2022-10-23T04:49:43.961Z,2.35
2022-10-23T04:52:10.928Z,2.63
2022-10-23T04:54:39.183Z,2.80
2022-10-23T04:57:06.161Z,2.40
2022-10-23T04:59:33.115Z,2.72
2022-10-23T05:02:00.117Z,2.75
2022-10-23T05:04:27.099Z,2.47
2022-10-23T05:06:54.119Z,2.60
2022-10-23T05:09:22.341Z,2.97
2022-10-23T05:11:49.497Z,2.30
2022-10-23T05:14:20.596Z,2.50
2022-10-23T05:17:00.380Z,2.53
2022-10-23T05:19:42.275Z,2.38
2022-10-23T05:22:11.352Z,2.08
2022-10-23T05:24:38.270Z,2.95
2022-10-23T05:27:05.160Z,3.03
2022-10-23T05:29:32.061Z,2.35
2022-10-23T05:32:03.559Z,2.45
2022-10-23T05:34:34.343Z,2.40
2022-10-23T05:37:03.158Z,2.25
2022-10-23T05:39:30.211Z,2.30
2022-10-23T05:41:57.174Z,2.15
2022-10-23T05:44:24.136Z,2.08
2022-10-23T05:46:51.123Z,2.15
2022-10-23T05:49:18.225Z,2.03
2022-10-23T05:51:45.170Z,2.20
2022-10-23T05:54:12.111Z,2.40
2022-10-23T05:56:43.241Z,2.15
2022-10-23T05:59:10.707Z,2.30
2022-10-23T06:01:38.160Z,2.30
2022-10-23T06:04:06.195Z,2.15
2022-10-23T06:06:33.196Z,2.20
2022-10-23T06:09:00.173Z,2.20
2022-10-23T06:11:27.256Z,2.53
2022-10-23T06:13:54.201Z,2.10
2022-10-23T06:16:27.777Z,2.60
2022-10-23T06:18:55.310Z,2.28
2022-10-23T06:21:22.180Z,2.30
2022-10-23T06:23:49.255Z,2.40
2022-10-23T06:26:18.461Z,2.42
2022-10-23T06:28:46.052Z,2.10
2022-10-23T06:31:16.377Z,2.55
2022-10-23T06:33:43.257Z,2.08
2022-10-23T06:36:10.597Z,2.97
2022-10-23T06:38:40.388Z,2.60
2022-10-23T06:41:14.824Z,2.50
2022-10-23T06:43:42.000Z,3.13
2022-10-23T06:46:10.061Z,2.58
2022-10-23T06:48:37.231Z,3.05
2022-10-23T06:51:11.793Z,2.50
2022-10-23T06:53:39.100Z,2.88
2022-10-23T06:56:08.191Z,2.45
2022-10-23T06:58:36.865Z,2.90
2022-10-23T07:01:08.266Z,2.60
2022-10-23T07:03:35.819Z,2.58
2022-10-23T07:06:05.312Z,2.70
2022-10-23T07:08:32.563Z,2.58
2022-10-23T07:11:07.933Z,2.70
2022-10-23T07:13:36.745Z,2.40
2022-10-23T07:16:16.748Z,2.20
2022-10-23T07:18:44.499Z,2.33
2022-10-23T07:21:11.577Z,2.00
2022-10-23T07:23:38.702Z,2.28
2022-10-23T07:26:15.749Z,2.55
2022-10-23T07:28:46.380Z,2.60
2022-10-23T07:31:14.623Z,3.03
2022-10-23T07:33:41.561Z,2.20
2022-10-23T07:36:09.969Z,2.20
2022-10-23T07:38:37.483Z,2.53
2022-10-23T07:41:08.909Z,2.60
2022-10-23T07:43:38.907Z,2.65
2022-10-23T07:46:06.040Z,2.60
2022-10-23T07:48:32.931Z,2.63
2022-10-23T07:51:10.862Z,2.28
2022-10-23T07:53:39.237Z,2.47
2022-10-23T07:56:24.375Z,2.92
2022-10-23T07:58:53.843Z,2.40
2022-10-23T08:01:43.194Z,2.45
2022-10-23T08:04:11.274Z,2.75
2022-10-23T08:06:38.558Z,2.28
2022-10-23T08:09:06.806Z,2.40
2022-10-23T08:11:35.763Z,3.70
2022-10-23T08:14:05.987Z,2.63
2022-10-23T08:16:35.603Z,2.58
2022-10-23T08:19:03.705Z,2.67
2022-10-23T08:21:30.957Z,2.60
2022-10-23T08:24:00.307Z,2.42
2022-10-23T08:26:31.702Z,2.35
2022-10-23T08:28:59.968Z,2.40
2022-10-23T08:31:28.373Z,2.50
2022-10-23T08:33:55.422Z,2.60
2022-10-23T08:36:28.255Z,2.88
2022-10-23T08:38:57.575Z,2.72
2022-10-23T08:41:38.056Z,3.08
2022-10-23T08:44:38.603Z,2.53
2022-10-23T08:47:26.727Z,2.83
2022-10-23T08:50:25.830Z,2.78
2022-10-23T08:53:02.917Z,2.70
2022-10-23T08:55:41.505Z,2.95
2022-10-23T08:58:15.694Z,2.95
2022-10-23T09:00:43.966Z,2.60
2022-10-23T09:03:13.184Z,2.97
2022-10-23T09:05:48.593Z,2.83
2022-10-23T09:08:32.294Z,2.88
2022-10-23T09:11:22.594Z,3.25
2022-10-23T09:14:25.075Z,3.25
2022-10-23T09:17:23.647Z,3.17
2022-10-23T09:20:14.884Z,2.78
2022-10-23T09:22:42.921Z,2.97
2022-10-23T09:25:24.011Z,2.78
2022-10-23T09:27:56.252Z,3.13
2022-10-23T09:30:40.218Z,3.45
2022-10-23T09:33:34.757Z,2.95
2022-10-23T09:36:27.519Z,2.80
2022-10-23T09:38:58.906Z,2.90
2022-10-23T09:41:40.468Z,3.00
2022-10-23T09:44:29.784Z,3.30
2022-10-23T09:47:06.022Z,2.97
2022-10-23T09:49:35.438Z,3.10
2022-10-23T09:52:23.015Z,2.90
2022-10-23T09:54:57.969Z,3.25
2022-10-23T09:57:44.515Z,3.40
2022-10-23T10:00:14.845Z,3.70
2022-10-23T10:03:05.075Z,2.80
2022-10-23T10:05:32.971Z,3.65
2022-10-23T10:08:08.997Z,3.50
2022-10-23T10:10:41.747Z,3.50
2022-10-23T10:13:32.652Z,4.07
2022-10-23T10:16:34.159Z,3.85
2022-10-23T10:19:40.831Z,4.13
2022-10-23T10:22:35.209Z,3.80
2022-10-23T10:25:38.067Z,4.25
2022-10-23T10:28:29.161Z,3.60
2022-10-23T10:31:13.629Z,4.10
2022-10-23T10:34:16.609Z,4.45
2022-10-23T10:36:51.789Z,3.78
2022-10-23T10:39:32.219Z,3.92
2022-10-23T10:42:20.198Z,3.50
2022-10-23T10:45:20.191Z,3.65
2022-10-23T10:48:38.426Z,4.03
2022-10-23T10:51:30.480Z,3.83
2022-10-23T10:54:07.883Z,3.53
2022-10-23T10:56:39.787Z,3.45
2022-10-23T10:59:31.556Z,3.22
2022-10-23T11:02:29.915Z,3.00
2022-10-23T11:05:24.298Z,3.85
2022-10-23T11:08:27.964Z,2.72
2022-10-23T11:11:03.807Z,3.03
2022-10-23T11:13:40.422Z,3.00
2022-10-23T11:16:18.736Z,2.83
2022-10-23T11:19:14.030Z,3.30
2022-10-23T11:21:56.531Z,3.40
2022-10-23T11:24:50.010Z,2.97
2022-10-23T11:28:08.555Z,3.03
2022-10-23T11:31:10.835Z,2.92
2022-10-23T11:34:14.806Z,2.70
2022-10-23T11:36:58.737Z,3.00
2022-10-23T11:39:29.641Z,3.10
2022-10-23T11:42:00.956Z,2.80
2022-10-23T11:44:50.694Z,2.70
2022-10-23T11:47:40.590Z,2.70
2022-10-23T11:50:07.610Z,2.92
2022-10-23T11:53:16.849Z,3.10
2022-10-23T11:55:59.475Z,2.58
2022-10-23T11:58:49.886Z,3.25
2022-10-23T12:01:26.200Z,3.10
2022-10-23T12:03:56.917Z,2.63
2022-10-23T12:06:33.179Z,2.85
2022-10-23T12:09:06.447Z,3.10
2022-10-23T12:11:48.170Z,2.80
2022-10-23T12:14:45.594Z,2.67
2022-10-23T12:17:40.233Z,2.80
2022-10-23T12:20:19.320Z,2.67
2022-10-23T12:23:00.831Z,2.83
2022-10-23T12:25:55.702Z,2.70
2022-10-23T12:28:40.119Z,2.70
2022-10-23T12:31:48.171Z,2.72
2022-10-23T12:34:42.665Z,2.85
2022-10-23T12:38:02.850Z,2.70
2022-10-23T12:40:30.470Z,2.40
2022-10-23T12:43:00.506Z,2.45
2022-10-23T12:45:40.230Z,2.40
2022-10-23T12:48:07.275Z,2.42
2022-10-23T12:50:34.792Z,3.13
2022-10-23T12:53:08.282Z,2.42
2022-10-23T12:58:34.118Z,2.25
2022-10-23T13:01:04.945Z,2.40
2022-10-23T13:03:34.054Z,2.50
2022-10-23T13:06:03.368Z,2.45
2022-10-23T13:08:44.637Z,2.40
2022-10-23T13:11:17.646Z,2.83
2022-10-23T13:13:45.111Z,2.47
2022-10-23T13:16:18.552Z,2.30
2022-10-23T13:18:45.790Z,2.45
2022-10-23T13:21:23.360Z,2.63
2022-10-23T13:23:52.139Z,2.65
2022-10-23T13:26:33.167Z,2.55
2022-10-23T13:29:07.526Z,2.92
2022-10-23T13:31:36.853Z,2.55
2022-10-23T13:34:16.633Z,2.50
2022-10-23T13:37:00.091Z,2.00
2022-10-23T13:39:34.519Z,2.13
2022-10-23T13:42:14.150Z,2.40
2022-10-23T13:44:41.938Z,2.30
2022-10-23T13:47:13.554Z,2.40
2022-10-23T13:49:40.497Z,8.05
2022-10-23T13:52:13.562Z,2.63
2022-10-23T13:54:40.942Z,2.42
2022-10-23T13:57:14.964Z,2.30
2022-10-23T13:59:42.265Z,2.28
2022-10-23T14:02:22.277Z,2.78
2022-10-23T14:04:50.985Z,2.10
2022-10-23T14:07:18.281Z,2.40
2022-10-23T14:09:45.386Z,2.97
2022-10-23T14:12:13.614Z,3.38
2022-10-23T14:14:40.692Z,2.38
2022-10-23T14:17:07.651Z,2.83
2022-10-23T14:19:35.049Z,2.15
2022-10-23T14:22:01.982Z,2.45
2022-10-23T14:24:28.913Z,2.30
2022-10-23T14:26:57.542Z,2.50
2022-10-23T14:29:24.709Z,2.45
2022-10-23T14:31:51.912Z,2.22
2022-10-23T14:34:18.820Z,2.50
2022-10-23T14:36:50.278Z,2.15
2022-10-23T14:39:18.326Z,2.40
2022-10-23T14:41:45.405Z,2.15
2022-10-23T14:44:12.339Z,1.95
2022-10-23T14:46:39.332Z,2.40
2022-10-23T14:49:06.675Z,2.70
2022-10-23T14:51:33.790Z,2.10
2022-10-23T14:54:06.653Z,3.03
2022-10-23T14:56:36.909Z,2.10
2022-10-23T14:59:04.749Z,2.40
2022-10-23T15:01:41.240Z,2.28
2022-10-23T15:04:11.971Z,2.67
2022-10-23T15:06:38.913Z,2.45
2022-10-23T15:09:05.872Z,2.30
2022-10-23T15:11:32.823Z,2.40
2022-10-23T15:14:00.851Z,2.90
2022-10-23T15:16:28.255Z,2.22
2022-10-23T15:18:55.169Z,2.28
2022-10-23T15:21:22.178Z,3.80
2022-10-23T15:23:49.479Z,2.80
2022-10-23T15:26:23.917Z,2.58
2022-10-23T15:29:00.297Z,2.60
2022-10-23T15:31:30.302Z,2.92
2022-10-23T15:33:58.489Z,2.60
2022-10-23T15:36:26.300Z,2.83
2022-10-23T15:38:53.364Z,2.75
2022-10-23T15:41:42.823Z,2.78
2022-10-23T15:44:14.496Z,3.13
2022-10-23T15:46:41.541Z,2.92
2022-10-23T15:49:08.753Z,2.80
2022-10-23T15:51:37.369Z,2.88
2022-10-23T15:54:06.709Z,2.75
2022-10-23T15:56:35.331Z,2.90
2022-10-23T15:59:02.727Z,3.05
2022-10-23T16:01:29.849Z,3.45
2022-10-23T16:03:56.927Z,3.17
2022-10-23T16:06:26.735Z,3.05
2022-10-23T16:11:29.699Z,2.70
2022-10-23T16:13:58.570Z,2.70
2022-10-23T16:16:26.064Z,2.67
2022-10-23T16:18:53.080Z,3.25
2022-10-23T16:21:29.265Z,2.90
2022-10-23T16:23:59.301Z,3.05
2022-10-23T16:26:28.151Z,3.08
2022-10-23T16:29:02.256Z,3.00
2022-10-23T16:31:29.956Z,3.08
2022-10-23T16:34:01.466Z,2.88
2022-10-23T16:36:29.485Z,2.85
2022-10-23T16:38:56.841Z,3.30
2022-10-23T16:41:23.793Z,3.17
2022-10-23T16:43:50.660Z,2.80
2022-10-23T16:46:21.226Z,2.88
2022-10-23T16:48:50.239Z,3.00
2022-10-23T16:51:23.838Z,2.92
2022-10-23T16:53:52.456Z,2.80
2022-10-23T16:56:23.239Z,3.00
2022-10-23T16:58:50.796Z,2.92
2022-10-23T17:01:21.874Z,3.08
2022-10-23T17:03:52.184Z,3.72
2022-10-23T17:06:25.654Z,3.00
2022-10-23T17:08:52.936Z,2.83
2022-10-23T17:11:26.699Z,3.22
2022-10-23T17:13:59.272Z,3.17
2022-10-23T17:16:34.893Z,3.28
2022-10-23T17:19:04.298Z,3.08
2022-10-23T17:21:39.660Z,2.97
2022-10-23T17:24:07.611Z,2.95
2022-10-23T17:26:35.285Z,3.50
2022-10-23T17:29:04.941Z,3.03
2022-10-23T17:31:38.504Z,3.17
2022-10-23T17:34:10.580Z,2.80
2022-10-23T17:36:43.517Z,2.40
2022-10-23T17:39:17.859Z,1.98
2022-10-23T17:41:45.106Z,1.40
2022-10-23T17:44:12.361Z,1.50
2022-10-23T17:46:39.528Z,1.33
2022-10-23T17:49:06.755Z,1.30
2022-10-23T17:51:35.756Z,1.23
2022-10-23T17:54:09.752Z,1.00
2022-10-23T17:56:38.351Z,1.10
2022-10-23T17:59:10.353Z,0.98
2022-10-23T18:01:38.482Z,1.02
2022-10-23T18:04:07.506Z,1.65
2022-10-23T18:06:41.541Z,1.30
2022-10-23T18:09:08.517Z,1.95
2022-10-23T18:11:42.605Z,1.30
2022-10-23T18:14:14.606Z,1.60
2022-10-23T18:16:41.949Z,1.90
2022-10-23T18:19:09.299Z,1.20
2022-10-23T18:21:37.897Z,1.25
2022-10-23T18:24:05.297Z,1.52
2022-10-23T18:26:37.705Z,1.63
2022-10-23T18:29:07.818Z,5.65
2022-10-23T18:31:37.115Z,1.80
2022-10-23T18:34:15.654Z,1.52
2022-10-23T18:36:42.581Z,1.40
2022-10-23T18:39:14.984Z,1.30
2022-10-23T18:41:44.504Z,1.23
2022-10-23T18:44:17.473Z,1.38
2022-10-23T18:46:46.696Z,2.03
2022-10-23T18:49:15.216Z,1.40
2022-10-23T18:51:42.267Z,1.10
2022-10-23T18:54:13.968Z,1.38
2022-10-23T18:56:41.178Z,1.38
2022-10-23T18:59:17.345Z,1.52
2022-10-23T19:01:44.638Z,1.58
2022-10-23T19:04:13.053Z,1.50
2022-10-23T19:06:40.335Z,1.75
2022-10-23T19:09:09.353Z,1.40
2022-10-23T19:11:37.113Z,1.52
2022-10-23T19:14:04.923Z,1.40
2022-10-23T19:16:41.474Z,1.70
2022-10-23T19:19:17.422Z,1.42
2022-10-23T19:21:45.153Z,1.50
2022-10-23T19:24:19.074Z,1.60
2022-10-23T19:26:46.427Z,1.50
2022-10-23T19:29:19.139Z,1.50
2022-10-23T19:31:49.246Z,1.83
2022-10-23T19:34:20.043Z,1.58
2022-10-23T19:36:48.655Z,1.40
2022-10-23T19:39:16.828Z,1.60
2022-10-23T19:41:44.213Z,1.58
2022-10-23T19:44:12.592Z,1.55
2022-10-23T19:46:39.519Z,2.00
2022-10-23T19:49:06.747Z,1.33
2022-10-23T19:51:33.624Z,1.38
2022-10-23T19:54:01.159Z,1.83
2022-10-23T19:56:28.292Z,1.50
2022-10-23T19:58:55.373Z,1.52
2022-10-23T20:01:25.577Z,1.70
2022-10-23T20:03:53.146Z,1.50
2022-10-23T20:06:27.557Z,1.63
2022-10-23T20:08:54.971Z,1.58
2022-10-23T20:11:28.942Z,1.55
2022-10-23T20:13:57.193Z,1.50
2022-10-23T20:16:28.598Z,1.60
2022-10-23T20:18:56.060Z,1.63
2022-10-23T20:21:23.774Z,1.42
2022-10-23T20:23:51.252Z,1.40
2022-10-23T20:26:21.987Z,1.35
2022-10-23T20:28:53.283Z,1.60
2022-10-23T20:31:23.025Z,1.73
2022-10-23T20:33:50.910Z,1.35
2022-10-23T20:36:36.217Z,1.40
2022-10-23T20:39:07.700Z,1.70
2022-10-23T20:41:37.175Z,2.10
2022-10-23T20:44:07.238Z,1.65
2022-10-23T20:46:34.700Z,1.40
2022-10-23T20:49:01.664Z,1.27
2022-10-23T20:51:28.591Z,1.67
2022-10-23T20:53:55.639Z,1.20
2022-10-23T20:56:32.773Z,1.60
2022-10-23T20:59:11.180Z,1.50
2022-10-23T21:01:43.498Z,1.15
2022-10-23T21:04:13.562Z,1.70
2022-10-23T21:06:57.449Z,1.33
2022-10-23T21:09:30.607Z,1.92
2022-10-23T21:11:57.810Z,1.20
2022-10-23T21:14:24.738Z,1.50
2022-10-23T21:16:51.680Z,1.50
2022-10-23T21:19:18.672Z,1.33
2022-10-23T21:21:45.611Z,1.75
2022-10-23T21:24:16.323Z,1.60
2022-10-23T21:26:44.660Z,1.40
2022-10-23T21:29:18.489Z,1.65
2022-10-23T21:31:54.494Z,1.30
2022-10-23T21:34:22.136Z,1.50
2022-10-23T21:37:11.429Z,1.63
2022-10-23T21:39:36.095Z,1.63
2022-10-23T21:42:03.060Z,1.70
2022-10-23T21:44:29.973Z,2.08
2022-10-23T21:46:56.936Z,1.88
2022-10-23T21:49:23.842Z,1.92
2022-10-23T21:51:50.702Z,2.65
2022-10-23T21:54:17.760Z,2.55
2022-10-23T21:56:45.674Z,2.17
2022-10-23T21:59:18.241Z,2.60
2022-10-23T22:01:47.274Z,2.30
2022-10-23T22:04:17.159Z,2.78
2022-10-23T22:06:46.163Z,2.90
2022-10-23T22:09:17.390Z,2.60
2022-10-23T22:11:44.386Z,2.40
2022-10-23T22:14:11.288Z,2.25
2022-10-23T22:16:38.215Z,2.78
2022-10-23T22:19:05.140Z,2.80
2022-10-23T22:21:32.303Z,2.13
2022-10-23T22:24:01.074Z,2.75
2022-10-23T22:26:32.731Z,2.20
2022-10-23T22:29:06.441Z,2.17
2022-10-23T22:31:35.324Z,1.92
2022-10-23T22:34:13.386Z,1.75
2022-10-23T22:36:52.389Z,1.80
2022-10-23T22:39:19.330Z,1.98
2022-10-23T22:41:47.553Z,1.60
2022-10-23T22:44:15.255Z,1.70
2022-10-23T22:46:43.209Z,1.70
2022-10-23T22:49:10.310Z,1.50
2022-10-23T22:51:39.508Z,1.27
2022-10-23T22:54:07.012Z,1.70
2022-10-23T22:56:34.832Z,1.65
2022-10-23T22:59:02.258Z,1.67
2022-10-23T23:01:43.848Z,1.23
2022-10-23T23:04:36.790Z,1.20
2022-10-23T23:07:05.164Z,1.40
2022-10-23T23:09:32.200Z,1.65
2022-10-23T23:11:59.102Z,1.25
2022-10-23T23:14:25.996Z,1.45
2022-10-23T23:16:53.582Z,1.80
2022-10-23T23:19:23.379Z,1.30
2022-10-23T23:21:50.758Z,1.20
2022-10-23T23:24:17.737Z,1.40
2022-10-23T23:26:44.630Z,1.60
2022-10-23T23:29:12.034Z,1.27
2022-10-23T23:31:39.115Z,1.73
2022-10-23T23:34:06.083Z,1.60
2022-10-23T23:36:33.965Z,1.42
2022-10-23T23:39:01.449Z,1.60
2022-10-23T23:41:29.556Z,1.35
2022-10-23T23:43:58.321Z,1.80
2022-10-23T23:46:25.838Z,1.90
2022-10-23T23:48:52.758Z,1.73
2022-10-23T23:51:23.318Z,1.52
2022-10-23T23:53:51.631Z,1.40
2022-10-23T23:56:19.061Z,1.70
2022-10-23T23:58:45.994Z,1.70
